createdAt,value
2022-08-21T00:00:31.606Z,14.30
2022-08-21T00:01:33.927Z,14.28
2022-08-21T00:02:38.949Z,14.28
2022-08-21T00:03:41.691Z,14.26
2022-08-21T00:04:48.226Z,14.25
2022-08-21T00:06:00.420Z,14.24
2022-08-21T00:07:02.951Z,14.24
2022-08-21T00:08:06.308Z,14.24
2022-08-21T00:09:10.158Z,14.23
2022-08-21T00:10:14.102Z,14.23
2022-08-21T00:11:16.321Z,14.23
2022-08-21T00:12:19.425Z,14.23
2022-08-21T00:13:21.929Z,14.23
2022-08-21T00:14:25.296Z,14.23
2022-08-21T00:15:30.053Z,14.22
2022-08-21T00:16:33.359Z,14.22
2022-08-21T00:17:36.985Z,14.21
2022-08-21T00:18:40.278Z,14.22
2022-08-21T00:19:42.502Z,14.21
2022-08-21T00:20:46.699Z,14.21
2022-08-21T00:21:49.452Z,14.20
2022-08-21T00:22:52.864Z,14.20
2022-08-21T00:23:55.242Z,14.21
2022-08-21T00:24:58.405Z,14.21
2022-08-21T00:26:00.700Z,14.21
2022-08-21T00:27:04.050Z,14.20
2022-08-21T00:28:07.480Z,14.22
2022-08-21T00:29:10.825Z,14.23
2022-08-21T00:30:22.850Z,14.21
2022-08-21T00:31:26.519Z,14.21
2022-08-21T00:32:29.294Z,14.20
2022-08-21T00:33:33.937Z,14.19
2022-08-21T00:34:36.194Z,14.17
2022-08-21T00:35:41.993Z,14.16
2022-08-21T00:36:44.141Z,14.17
2022-08-21T00:37:47.262Z,14.15
2022-08-21T00:38:49.435Z,14.14
2022-08-21T00:39:52.801Z,14.14
2022-08-21T00:40:59.673Z,14.14
2022-08-21T00:42:06.109Z,14.13
2022-08-21T00:43:10.861Z,14.12
2022-08-21T00:44:15.894Z,14.13
2022-08-21T00:45:18.175Z,14.10
2022-08-21T00:46:21.735Z,14.12
2022-08-21T00:47:27.061Z,14.12
2022-08-21T00:48:30.428Z,14.11
2022-08-21T00:49:34.025Z,14.11
2022-08-21T00:50:41.995Z,14.10
2022-08-21T00:51:48.774Z,14.10
2022-08-21T00:52:53.291Z,14.09
2022-08-21T00:53:59.147Z,14.08
2022-08-21T00:55:03.027Z,14.07
2022-08-21T00:56:08.077Z,14.06
2022-08-21T00:57:18.347Z,14.05
2022-08-21T00:58:21.023Z,14.05
2022-08-21T00:59:28.765Z,14.03
2022-08-21T01:00:34.342Z,14.01
2022-08-21T01:01:38.293Z,14.02
2022-08-21T01:02:40.602Z,14.00
2022-08-21T01:03:44.093Z,14.00
2022-08-21T01:04:49.127Z,14.00
2022-08-21T01:05:53.085Z,14.00
2022-08-21T01:06:56.016Z,14.00
2022-08-21T01:07:59.225Z,13.97
2022-08-21T01:09:01.433Z,13.98
2022-08-21T01:10:06.379Z,13.95
2022-08-21T01:11:08.765Z,13.95
2022-08-21T01:12:13.007Z,13.95
2022-08-21T01:13:19.060Z,13.95
2022-08-21T01:14:23.969Z,13.94
2022-08-21T01:15:31.406Z,13.93
2022-08-21T01:16:35.507Z,13.93
2022-08-21T01:17:38.153Z,13.93
2022-08-21T01:18:41.863Z,13.93
2022-08-21T01:19:44.426Z,13.93
2022-08-21T01:21:16.421Z,13.93
2022-08-21T01:22:20.506Z,13.93
2022-08-21T01:23:23.708Z,13.93
2022-08-21T01:24:25.836Z,13.92
2022-08-21T01:25:29.035Z,13.92
2022-08-21T01:26:35.561Z,13.92
2022-08-21T01:27:39.453Z,13.91
2022-08-21T01:28:45.256Z,13.91
2022-08-21T01:29:56.472Z,13.89
2022-08-21T01:30:59.287Z,13.88
2022-08-21T01:32:07.080Z,13.88
2022-08-21T01:33:09.240Z,13.86
2022-08-21T01:34:14.814Z,13.85
2022-08-21T01:35:18.811Z,13.85
2022-08-21T01:36:23.159Z,13.82
2022-08-21T01:37:26.930Z,13.83
2022-08-21T01:38:30.342Z,13.83
2022-08-21T01:39:33.963Z,13.82
2022-08-21T01:40:37.200Z,13.81
2022-08-21T01:41:39.415Z,13.80
2022-08-21T01:42:43.657Z,13.80
2022-08-21T01:43:46.149Z,13.80
2022-08-21T01:44:49.404Z,13.79
2022-08-21T01:45:56.955Z,13.80
2022-08-21T01:47:01.561Z,13.79
2022-08-21T01:48:04.389Z,13.79
2022-08-21T01:49:08.289Z,13.79
2022-08-21T01:50:17.021Z,13.78
2022-08-21T01:51:20.916Z,13.80
2022-08-21T01:52:23.153Z,13.79
2022-08-21T01:53:33.202Z,13.79
2022-08-21T01:54:37.066Z,13.80
2022-08-21T01:55:40.141Z,13.78
2022-08-21T01:56:47.563Z,13.78
2022-08-21T01:57:51.544Z,13.79
2022-08-21T01:58:54.637Z,13.80
2022-08-21T01:59:56.829Z,13.79
2022-08-21T02:01:00.061Z,13.79
2022-08-21T02:02:02.362Z,13.79
2022-08-21T02:03:05.515Z,13.79
2022-08-21T02:04:08.704Z,13.77
2022-08-21T02:05:13.648Z,13.76
2022-08-21T02:06:18.778Z,13.76
2022-08-21T02:07:22.263Z,13.75
2022-08-21T02:08:24.443Z,13.74
2022-08-21T02:09:29.520Z,13.73
2022-08-21T02:10:33.645Z,13.72
2022-08-21T02:11:37.572Z,13.70
2022-08-21T02:12:39.742Z,13.71
2022-08-21T02:13:43.081Z,13.67
2022-08-21T02:14:45.226Z,13.67
2022-08-21T02:15:48.902Z,13.68
2022-08-21T02:16:51.285Z,13.67
2022-08-21T02:18:08.855Z,13.66
2022-08-21T02:19:12.775Z,13.66
2022-08-21T02:20:19.514Z,13.65
2022-08-21T02:21:22.683Z,13.65
2022-08-21T02:22:24.816Z,13.64
2022-08-21T02:23:27.990Z,13.65
2022-08-21T02:24:31.487Z,13.64
2022-08-21T02:25:34.932Z,13.63
2022-08-21T02:26:37.172Z,13.64
2022-08-21T02:27:42.751Z,13.61
2022-08-21T02:28:46.405Z,13.59
2022-08-21T02:29:48.567Z,13.61
2022-08-21T02:30:52.705Z,13.61
2022-08-21T02:31:54.898Z,13.61
2022-08-21T02:33:00.485Z,13.62
2022-08-21T02:34:02.684Z,13.61
2022-08-21T02:35:06.991Z,13.60
2022-08-21T02:36:12.433Z,13.60
2022-08-21T02:37:14.558Z,13.60
2022-08-21T02:38:20.625Z,13.60
2022-08-21T02:39:27.206Z,13.59
2022-08-21T02:40:35.614Z,13.59
2022-08-21T02:41:37.981Z,13.59
2022-08-21T02:42:41.410Z,13.58
2022-08-21T02:43:43.649Z,13.59
2022-08-21T02:44:46.768Z,13.58
2022-08-21T02:45:51.376Z,13.58
2022-08-21T02:46:54.500Z,13.57
2022-08-21T02:47:59.023Z,13.58
2022-08-21T02:49:02.170Z,13.58
2022-08-21T02:50:05.886Z,13.59
2022-08-21T02:51:12.002Z,13.59
2022-08-21T02:52:15.421Z,13.59
2022-08-21T02:53:19.190Z,13.58
2022-08-21T02:54:21.288Z,13.58
2022-08-21T02:55:27.411Z,13.59
2022-08-21T02:56:31.558Z,13.58
2022-08-21T02:57:34.865Z,13.58
2022-08-21T02:58:41.273Z,13.57
2022-08-21T02:59:44.554Z,13.57
2022-08-21T03:00:47.187Z,13.57
2022-08-21T03:01:50.325Z,13.58
2022-08-21T03:02:54.417Z,13.53
2022-08-21T03:03:57.597Z,13.57
2022-08-21T03:04:59.782Z,13.57
2022-08-21T03:06:02.911Z,13.56
2022-08-21T03:07:05.283Z,13.55
2022-08-21T03:08:17.112Z,13.56
2022-08-21T03:09:19.273Z,13.56
2022-08-21T03:10:24.252Z,13.55
2022-08-21T03:11:27.857Z,13.54
2022-08-21T03:12:31.409Z,13.45
2022-08-21T03:13:34.582Z,13.54
2022-08-21T03:14:36.930Z,13.55
2022-08-21T03:15:41.121Z,13.55
2022-08-21T03:16:43.493Z,13.54
2022-08-21T03:17:47.238Z,13.54
2022-08-21T03:18:50.414Z,13.53
2022-08-21T03:19:52.627Z,13.54
2022-08-21T03:20:56.273Z,13.52
2022-08-21T03:21:58.351Z,13.52
2022-08-21T03:23:02.870Z,13.53
2022-08-21T03:24:05.762Z,13.53
2022-08-21T03:25:11.602Z,13.52
2022-08-21T03:26:14.852Z,13.52
2022-08-21T03:27:19.490Z,13.51
2022-08-21T03:28:25.511Z,13.51
2022-08-21T03:29:28.804Z,13.50
2022-08-21T03:30:32.268Z,13.52
2022-08-21T03:31:35.433Z,13.50
2022-08-21T03:32:37.586Z,13.51
2022-08-21T03:33:40.794Z,13.50
2022-08-21T03:34:43.155Z,13.50
2022-08-21T03:35:49.929Z,13.50
2022-08-21T03:36:53.029Z,13.50
2022-08-21T03:37:55.569Z,13.49
2022-08-21T03:38:58.794Z,13.50
2022-08-21T03:40:01.284Z,13.48
2022-08-21T03:41:05.651Z,13.49
2022-08-21T03:42:08.416Z,13.49
2022-08-21T03:43:11.697Z,13.47
2022-08-21T03:44:15.313Z,13.49
2022-08-21T03:45:20.325Z,13.48
2022-08-21T03:46:22.483Z,13.46
2022-08-21T03:47:31.320Z,13.47
2022-08-21T03:48:35.399Z,13.46
2022-08-21T03:49:38.640Z,13.45
2022-08-21T03:50:43.363Z,13.44
2022-08-21T03:51:46.621Z,13.39
2022-08-21T03:52:48.934Z,13.44
2022-08-21T03:53:52.233Z,13.42
2022-08-21T03:54:54.380Z,13.43
2022-08-21T03:55:57.555Z,13.43
2022-08-21T03:57:00.201Z,13.43
2022-08-21T03:58:16.362Z,13.41
2022-08-21T03:59:21.778Z,13.42
2022-08-21T04:00:25.617Z,13.40
2022-08-21T04:01:29.236Z,13.42
2022-08-21T04:02:31.444Z,13.40
2022-08-21T04:03:36.785Z,13.39
2022-08-21T04:04:38.942Z,13.39
2022-08-21T04:05:42.171Z,13.38
2022-08-21T04:06:44.648Z,13.38
2022-08-21T04:07:47.873Z,13.36
2022-08-21T04:08:50.096Z,13.36
2022-08-21T04:09:53.263Z,13.34
2022-08-21T04:10:57.947Z,13.34
2022-08-21T04:12:01.879Z,13.32
2022-08-21T04:13:05.487Z,13.32
2022-08-21T04:14:08.652Z,13.30
2022-08-21T04:15:13.630Z,13.29
2022-08-21T04:16:16.777Z,13.28
2022-08-21T04:17:19.066Z,13.27
2022-08-21T04:18:22.504Z,13.27
2022-08-21T04:19:24.981Z,13.27
2022-08-21T04:20:29.402Z,13.25
2022-08-21T04:21:35.405Z,13.26
2022-08-21T04:22:39.954Z,13.26
2022-08-21T04:23:43.142Z,13.27
2022-08-21T04:24:45.902Z,13.27
2022-08-21T04:25:49.094Z,13.29
2022-08-21T04:26:51.372Z,13.30
2022-08-21T04:27:54.832Z,13.31
2022-08-21T04:28:58.481Z,13.32
2022-08-21T04:30:01.925Z,13.33
2022-08-21T04:31:05.966Z,13.34
2022-08-21T04:32:09.149Z,13.36
2022-08-21T04:33:11.347Z,13.38
2022-08-21T04:34:14.564Z,13.39
2022-08-21T04:35:18.854Z,13.39
2022-08-21T04:36:22.982Z,13.43
2022-08-21T04:37:26.739Z,13.46
2022-08-21T04:38:36.492Z,13.47
2022-08-21T04:39:40.098Z,13.50
2022-08-21T04:40:43.428Z,13.51
2022-08-21T04:41:45.670Z,13.53
2022-08-21T04:42:51.357Z,13.54
2022-08-21T04:43:53.547Z,13.57
2022-08-21T04:44:58.518Z,13.57
2022-08-21T04:46:01.405Z,13.63
2022-08-21T04:47:06.847Z,13.65
2022-08-21T04:48:14.038Z,13.67
2022-08-21T04:49:17.721Z,13.70
2022-08-21T04:50:21.308Z,13.71
2022-08-21T04:51:41.382Z,13.74
2022-08-21T04:52:44.664Z,13.75
2022-08-21T04:53:51.432Z,13.78
2022-08-21T04:54:55.329Z,13.79
2022-08-21T04:56:02.762Z,13.82
2022-08-21T04:57:09.757Z,13.82
2022-08-21T04:58:14.811Z,13.84
2022-08-21T04:59:22.188Z,13.88
2022-08-21T05:00:26.622Z,13.89
2022-08-21T05:01:30.142Z,13.92
2022-08-21T05:02:35.058Z,13.94
2022-08-21T05:03:38.120Z,13.95
2022-08-21T05:04:52.001Z,14.00
2022-08-21T05:05:54.160Z,14.03
2022-08-21T05:07:00.125Z,14.04
2022-08-21T05:08:03.725Z,14.07
2022-08-21T05:09:10.287Z,14.07
2022-08-21T05:10:14.060Z,14.08
2022-08-21T05:11:17.486Z,14.13
2022-08-21T05:12:19.915Z,14.14
2022-08-21T05:13:23.344Z,14.17
2022-08-21T05:14:27.412Z,14.17
2022-08-21T05:15:31.627Z,14.23
2022-08-21T05:16:37.172Z,14.26
2022-08-21T05:17:43.044Z,14.30
2022-08-21T05:18:45.127Z,14.35
2022-08-21T05:19:48.396Z,14.39
2022-08-21T05:20:51.726Z,14.43
2022-08-21T05:21:54.869Z,14.47
2022-08-21T05:22:57.813Z,14.49
2022-08-21T05:24:01.099Z,14.54
2022-08-21T05:25:03.555Z,14.59
2022-08-21T05:26:18.252Z,14.64
2022-08-21T05:27:20.992Z,14.66
2022-08-21T05:28:27.207Z,14.71
2022-08-21T05:29:32.471Z,14.74
2022-08-21T05:30:36.577Z,14.77
2022-08-21T05:31:39.135Z,14.78
2022-08-21T05:32:43.691Z,14.85
2022-08-21T05:33:45.822Z,14.87
2022-08-21T05:34:48.947Z,14.90
2022-08-21T05:35:52.885Z,14.94
2022-08-21T05:36:56.079Z,14.96
2022-08-21T05:37:58.319Z,14.99
2022-08-21T05:39:01.509Z,15.01
2022-08-21T05:40:22.347Z,15.04
2022-08-21T05:41:26.300Z,15.05
2022-08-21T05:42:28.912Z,15.09
2022-08-21T05:43:33.913Z,15.10
2022-08-21T05:44:36.041Z,15.12
2022-08-21T05:45:41.620Z,15.13
2022-08-21T05:46:45.881Z,15.15
2022-08-21T05:47:50.457Z,15.16
2022-08-21T05:48:52.785Z,15.19
2022-08-21T05:49:56.070Z,15.21
2022-08-21T05:50:58.261Z,15.25
2022-08-21T05:52:01.514Z,15.28
2022-08-21T05:53:07.092Z,15.30
2022-08-21T05:54:12.044Z,15.32
2022-08-21T05:55:14.352Z,15.36
2022-08-21T05:56:17.938Z,15.40
2022-08-21T05:57:20.040Z,15.44
2022-08-21T05:58:23.874Z,15.48
2022-08-21T05:59:26.072Z,15.51
2022-08-21T06:00:29.225Z,15.55
2022-08-21T06:01:32.930Z,15.61
2022-08-21T06:02:35.075Z,15.66
2022-08-21T06:03:41.727Z,15.71
2022-08-21T06:04:44.066Z,15.76
2022-08-21T06:05:47.505Z,15.81
2022-08-21T06:06:49.777Z,15.86
2022-08-21T06:07:53.006Z,15.92
2022-08-21T06:08:55.225Z,15.96
2022-08-21T06:09:58.528Z,16.02
2022-08-21T06:11:01.928Z,16.07
2022-08-21T06:12:06.696Z,16.11
2022-08-21T06:13:09.214Z,16.16
2022-08-21T06:14:12.442Z,16.21
2022-08-21T06:15:14.521Z,16.26
2022-08-21T06:16:19.303Z,16.29
2022-08-21T06:17:22.553Z,16.34
2022-08-21T06:18:24.704Z,16.39
2022-08-21T06:19:29.624Z,16.43
2022-08-21T06:20:32.565Z,16.49
2022-08-21T06:21:35.790Z,16.54
2022-08-21T06:22:37.923Z,16.60
2022-08-21T06:23:43.900Z,16.65
2022-08-21T06:24:46.140Z,16.69
2022-08-21T06:25:49.313Z,16.72
2022-08-21T06:26:52.721Z,16.77
2022-08-21T06:28:01.061Z,16.80
2022-08-21T06:29:04.278Z,16.83
2022-08-21T06:30:08.493Z,16.85
2022-08-21T06:31:17.796Z,16.87
2022-08-21T06:32:19.980Z,16.88
2022-08-21T06:33:27.164Z,16.91
2022-08-21T06:34:33.949Z,16.93
2022-08-21T06:35:36.939Z,16.97
2022-08-21T06:36:44.855Z,16.98
2022-08-21T06:37:47.041Z,17.00
2022-08-21T06:38:51.742Z,17.02
2022-08-21T06:39:54.385Z,17.03
2022-08-21T06:40:57.978Z,17.04
2022-08-21T06:42:01.224Z,17.05
2022-08-21T06:43:10.562Z,17.05
2022-08-21T06:44:12.773Z,17.05
2022-08-21T06:45:15.977Z,17.01
2022-08-21T06:46:19.110Z,17.07
2022-08-21T06:47:21.233Z,17.09
2022-08-21T06:48:24.423Z,17.12
2022-08-21T06:49:26.504Z,17.13
2022-08-21T06:50:31.797Z,17.16
2022-08-21T06:51:33.980Z,17.19
2022-08-21T06:52:37.246Z,17.23
2022-08-21T06:53:40.593Z,17.26
2022-08-21T06:54:42.763Z,17.31
2022-08-21T06:55:46.056Z,17.34
2022-08-21T06:56:48.187Z,17.38
2022-08-21T06:57:52.690Z,17.43
2022-08-21T06:58:55.104Z,17.48
2022-08-21T06:59:58.254Z,17.54
2022-08-21T07:01:01.610Z,17.59
2022-08-21T07:02:04.463Z,17.63
2022-08-21T07:03:07.627Z,17.68
2022-08-21T07:04:09.922Z,17.73
2022-08-21T07:05:18.497Z,17.78
2022-08-21T07:06:23.279Z,17.84
2022-08-21T07:07:25.401Z,17.88
2022-08-21T07:08:29.558Z,17.93
2022-08-21T07:09:31.692Z,17.98
2022-08-21T07:10:34.780Z,18.03
2022-08-21T07:11:39.421Z,18.08
2022-08-21T07:12:52.530Z,18.14
2022-08-21T07:13:55.952Z,18.19
2022-08-21T07:14:59.360Z,18.23
2022-08-21T07:16:04.017Z,18.30
2022-08-21T07:17:07.456Z,18.35
2022-08-21T07:18:10.170Z,18.40
2022-08-21T07:19:13.393Z,18.47
2022-08-21T07:20:15.481Z,18.52
2022-08-21T07:21:20.730Z,18.57
2022-08-21T07:22:28.604Z,18.63
2022-08-21T07:23:34.706Z,18.68
2022-08-21T07:24:36.946Z,18.72
2022-08-21T07:25:40.339Z,18.75
2022-08-21T07:26:42.649Z,18.81
2022-08-21T07:27:45.797Z,18.86
2022-08-21T07:28:48.502Z,18.91
2022-08-21T07:29:51.671Z,18.95
2022-08-21T07:30:56.050Z,18.99
2022-08-21T07:31:59.173Z,19.04
2022-08-21T07:33:02.114Z,19.08
2022-08-21T07:34:05.250Z,19.13
2022-08-21T07:35:08.437Z,19.18
2022-08-21T07:36:12.003Z,19.23
2022-08-21T07:37:14.114Z,19.28
2022-08-21T07:38:21.771Z,19.33
2022-08-21T07:39:23.923Z,19.36
2022-08-21T07:40:27.596Z,19.41
2022-08-21T07:41:30.824Z,19.44
2022-08-21T07:42:34.013Z,19.50
2022-08-21T07:43:38.668Z,19.52
2022-08-21T07:44:49.568Z,19.58
2022-08-21T07:45:55.772Z,19.62
2022-08-21T07:46:59.371Z,19.65
2022-08-21T07:48:02.491Z,19.70
2022-08-21T07:49:04.644Z,19.73
2022-08-21T07:50:08.937Z,19.77
2022-08-21T07:51:13.757Z,19.80
2022-08-21T07:52:18.545Z,19.83
2022-08-21T07:53:22.029Z,19.86
2022-08-21T07:54:33.670Z,19.89
2022-08-21T07:55:38.075Z,19.91
2022-08-21T07:56:40.224Z,19.93
2022-08-21T07:57:43.573Z,19.93
2022-08-21T07:58:45.965Z,19.94
2022-08-21T07:59:49.048Z,19.96
2022-08-21T08:00:51.311Z,19.98
2022-08-21T08:01:54.508Z,20.00
2022-08-21T08:02:57.042Z,20.04
2022-08-21T08:04:00.269Z,20.08
2022-08-21T08:05:03.318Z,20.10
2022-08-21T08:06:07.269Z,20.14
2022-08-21T08:07:09.777Z,20.18
2022-08-21T08:08:12.888Z,20.22
2022-08-21T08:09:16.466Z,20.25
2022-08-21T08:10:20.770Z,20.29
2022-08-21T08:11:23.641Z,20.31
2022-08-21T08:12:30.235Z,20.34
2022-08-21T08:13:32.378Z,20.36
2022-08-21T08:14:35.526Z,20.38
2022-08-21T08:15:37.860Z,20.41
2022-08-21T08:16:41.056Z,20.42
2022-08-21T08:17:43.373Z,20.44
2022-08-21T08:18:47.152Z,20.46
2022-08-21T08:19:50.243Z,20.48
2022-08-21T08:20:53.355Z,20.51
2022-08-21T08:21:55.597Z,20.52
2022-08-21T08:22:58.752Z,20.52
2022-08-21T08:24:01.025Z,20.55
2022-08-21T08:25:24.550Z,20.59
2022-08-21T08:26:26.660Z,20.61
2022-08-21T08:27:30.300Z,20.63
2022-08-21T08:28:34.305Z,20.65
2022-08-21T08:29:36.612Z,20.67
2022-08-21T08:30:39.837Z,20.69
2022-08-21T08:31:42.966Z,20.73
2022-08-21T08:32:46.540Z,20.76
2022-08-21T08:33:49.693Z,20.79
2022-08-21T08:34:52.674Z,20.82
2022-08-21T08:35:55.969Z,20.85
2022-08-21T08:36:58.982Z,20.88
2022-08-21T08:38:03.298Z,20.90
2022-08-21T08:39:06.433Z,20.91
2022-08-21T08:40:16.914Z,20.94
2022-08-21T08:41:23.756Z,20.97
2022-08-21T08:42:32.989Z,20.99
2022-08-21T08:43:36.696Z,21.04
2022-08-21T08:44:39.938Z,21.07
2022-08-21T08:45:45.906Z,21.10
2022-08-21T08:46:52.448Z,21.12
2022-08-21T08:48:03.851Z,21.18
2022-08-21T08:49:12.805Z,21.21
2022-08-21T08:50:22.373Z,21.24
2022-08-21T08:51:29.459Z,21.25
2022-08-21T08:52:34.417Z,21.25
2022-08-21T08:53:48.692Z,21.29
2022-08-21T08:54:58.740Z,21.31
2022-08-21T08:56:03.614Z,21.31
2022-08-21T08:57:15.539Z,21.33
2022-08-21T08:58:24.478Z,21.37
2022-08-21T08:59:32.988Z,21.38
2022-08-21T09:00:36.012Z,21.41
2022-08-21T09:01:39.424Z,21.44
2022-08-21T09:02:43.736Z,21.46
2022-08-21T09:03:50.665Z,21.49
2022-08-21T09:04:53.138Z,21.52
2022-08-21T09:06:04.766Z,21.55
2022-08-21T09:07:14.663Z,21.60
2022-08-21T09:08:51.758Z,21.64
2022-08-21T09:10:06.129Z,21.68
2022-08-21T09:11:17.889Z,21.70
2022-08-21T09:12:33.942Z,21.74
2022-08-21T09:13:52.479Z,21.75
2022-08-21T09:15:04.468Z,21.79
2022-08-21T09:16:15.298Z,21.80
2022-08-21T09:17:30.175Z,21.83
2022-08-21T09:18:47.718Z,21.87
2022-08-21T09:20:05.087Z,21.90
2022-08-21T09:21:17.982Z,21.94
2022-08-21T09:22:31.333Z,21.98
2022-08-21T09:23:45.750Z,22.04
2022-08-21T09:24:56.499Z,22.07
2022-08-21T09:26:07.603Z,22.11
2022-08-21T09:27:13.595Z,22.14
2022-08-21T09:28:17.113Z,22.17
2022-08-21T09:29:24.956Z,22.21
2022-08-21T09:30:29.846Z,22.24
2022-08-21T09:31:38.490Z,22.27
2022-08-21T09:32:42.310Z,22.31
2022-08-21T09:33:45.517Z,22.34
2022-08-21T09:35:07.889Z,22.37
2022-08-21T09:36:11.440Z,22.40
2022-08-21T09:37:18.785Z,22.42
2022-08-21T09:38:29.758Z,22.43
2022-08-21T09:39:40.329Z,22.46
2022-08-21T09:40:46.816Z,22.47
2022-08-21T09:41:57.905Z,22.50
2022-08-21T09:43:06.849Z,22.52
2022-08-21T09:44:12.423Z,22.56
2022-08-21T09:45:19.047Z,22.59
2022-08-21T09:46:24.802Z,22.63
2022-08-21T09:47:27.934Z,22.67
2022-08-21T09:48:32.555Z,22.70
2022-08-21T09:49:40.823Z,22.69
2022-08-21T09:50:43.858Z,22.73
2022-08-21T09:51:57.717Z,22.73
2022-08-21T09:53:02.222Z,22.71
2022-08-21T09:54:17.660Z,22.69
2022-08-21T09:55:46.625Z,22.67
2022-08-21T09:57:15.840Z,22.67
2022-08-21T09:58:19.774Z,22.66
2022-08-21T09:59:36.838Z,22.67
2022-08-21T10:00:39.511Z,22.67
2022-08-21T10:01:46.226Z,22.68
2022-08-21T10:02:49.361Z,22.69
2022-08-21T10:04:04.976Z,22.71
2022-08-21T10:05:17.104Z,22.65
2022-08-21T10:06:25.641Z,22.66
2022-08-21T10:07:30.895Z,22.62
2022-08-21T10:08:35.734Z,22.61
2022-08-21T10:09:39.874Z,22.59
2022-08-21T10:10:44.970Z,22.57
2022-08-21T10:11:55.092Z,22.58
2022-08-21T10:13:09.461Z,22.61
2022-08-21T10:14:24.511Z,22.63
2022-08-21T10:15:38.491Z,22.68
2022-08-21T10:16:59.104Z,22.72
2022-08-21T10:18:08.034Z,22.77
2022-08-21T10:19:24.518Z,22.82
2022-08-21T10:20:34.344Z,22.85
2022-08-21T10:21:45.467Z,22.90
2022-08-21T10:23:04.679Z,22.97
2022-08-21T10:24:30.651Z,23.04
2022-08-21T10:25:50.452Z,23.17
2022-08-21T10:27:14.765Z,23.26
2022-08-21T10:28:23.192Z,23.34
2022-08-21T10:29:42.123Z,23.38
2022-08-21T10:30:53.329Z,23.38
2022-08-21T10:32:04.375Z,23.39
2022-08-21T10:33:36.218Z,23.39
2022-08-21T10:34:53.361Z,23.44
2022-08-21T10:36:08.211Z,23.45
2022-08-21T10:37:24.606Z,23.42
2022-08-21T10:39:23.306Z,23.39
2022-08-21T10:40:27.617Z,23.34
2022-08-21T10:41:42.280Z,23.31
2022-08-21T10:42:57.584Z,23.25
2022-08-21T10:44:10.564Z,23.20
2022-08-21T10:45:25.826Z,23.15
2022-08-21T10:46:41.764Z,23.10
2022-08-21T10:47:49.312Z,23.03
2022-08-21T10:48:57.660Z,23.01
2022-08-21T10:50:11.467Z,23.00
2022-08-21T10:51:29.322Z,23.00
2022-08-21T10:52:55.797Z,23.04
2022-08-21T10:54:07.429Z,23.09
2022-08-21T10:55:14.248Z,23.12
2022-08-21T10:56:21.476Z,23.14
2022-08-21T10:57:32.399Z,23.14
2022-08-21T10:58:44.830Z,23.15
2022-08-21T10:59:56.498Z,23.20
2022-08-21T11:01:05.269Z,23.23
2022-08-21T11:02:17.490Z,23.26
2022-08-21T11:03:28.748Z,23.28
2022-08-21T11:04:49.999Z,23.30
2022-08-21T11:05:55.959Z,23.32
2022-08-21T11:07:06.596Z,23.37
2022-08-21T11:08:25.606Z,23.43
2022-08-21T11:09:28.793Z,23.49
2022-08-21T11:10:40.897Z,23.56
2022-08-21T11:12:11.106Z,23.68
2022-08-21T11:13:21.379Z,23.77
2022-08-21T11:14:49.951Z,23.82
2022-08-21T11:15:58.057Z,23.84
2022-08-21T11:17:07.486Z,23.83
2022-08-21T11:18:25.851Z,23.80
2022-08-21T11:19:37.478Z,23.78
2022-08-21T11:20:45.047Z,23.72
2022-08-21T11:21:54.612Z,23.67
2022-08-21T11:23:04.967Z,23.62
2022-08-21T11:24:19.300Z,23.59
2022-08-21T11:25:27.161Z,23.59
2022-08-21T11:26:47.448Z,23.65
2022-08-21T11:27:59.640Z,23.73
2022-08-21T11:29:11.057Z,23.80
2022-08-21T11:30:15.854Z,23.85
2022-08-21T11:31:30.518Z,23.88
2022-08-21T11:32:50.908Z,23.90
2022-08-21T11:34:07.266Z,23.93
2022-08-21T11:35:33.304Z,23.97
2022-08-21T11:36:55.219Z,23.98
2022-08-21T11:38:12.127Z,23.97
2022-08-21T11:39:24.104Z,23.95
2022-08-21T11:40:39.289Z,23.90
2022-08-21T11:41:49.519Z,23.84
2022-08-21T11:43:00.326Z,23.79
2022-08-21T11:44:14.736Z,23.72
2022-08-21T11:45:28.189Z,23.68
2022-08-21T11:46:42.135Z,23.62
2022-08-21T11:47:55.920Z,23.56
2022-08-21T11:49:17.060Z,23.50
2022-08-21T11:50:34.429Z,23.47
2022-08-21T11:51:45.110Z,23.43
2022-08-21T11:52:51.931Z,23.39
2022-08-21T11:54:07.259Z,23.35
2022-08-21T11:55:18.181Z,23.29
2022-08-21T11:56:30.289Z,23.22
2022-08-21T11:57:39.558Z,23.17
2022-08-21T11:58:45.715Z,23.15
2022-08-21T11:59:55.107Z,23.17
2022-08-21T12:01:01.358Z,23.24
2022-08-21T12:02:07.820Z,23.35
2022-08-21T12:03:13.563Z,23.46
2022-08-21T12:04:30.033Z,23.61
2022-08-21T12:05:48.263Z,23.76
2022-08-21T12:06:50.405Z,23.90
2022-08-21T12:08:04.895Z,24.07
2022-08-21T12:09:10.701Z,24.26
2022-08-21T12:10:17.398Z,24.42
2022-08-21T12:11:28.094Z,24.58
2022-08-21T12:12:35.542Z,24.75
2022-08-21T12:13:42.949Z,24.88
2022-08-21T12:14:47.177Z,24.98
2022-08-21T12:15:51.358Z,25.02
2022-08-21T12:17:05.336Z,25.06
2022-08-21T12:18:24.832Z,25.04
2022-08-21T12:19:32.711Z,25.00
2022-08-21T12:20:50.585Z,24.94
2022-08-21T12:21:59.514Z,24.87
2022-08-21T12:23:18.605Z,24.80
2022-08-21T12:24:34.713Z,24.72
2022-08-21T12:25:39.846Z,24.64
2022-08-21T12:26:52.236Z,24.56
2022-08-21T12:28:04.028Z,24.46
2022-08-21T12:29:16.173Z,24.40
2022-08-21T12:30:33.834Z,24.40
2022-08-21T12:31:37.015Z,24.41
2022-08-21T12:32:46.050Z,24.45
2022-08-21T12:33:57.739Z,24.52
2022-08-21T12:35:15.523Z,24.61
2022-08-21T12:36:38.903Z,24.73
2022-08-21T12:37:47.426Z,24.84
2022-08-21T12:38:53.706Z,24.95
2022-08-21T12:40:00.680Z,25.07
2022-08-21T12:41:06.897Z,25.18
2022-08-21T12:42:19.264Z,25.29
2022-08-21T12:43:26.513Z,25.40
2022-08-21T12:44:36.765Z,25.49
2022-08-21T12:45:44.575Z,25.59
2022-08-21T12:46:51.661Z,25.67
2022-08-21T12:48:00.362Z,25.77
2022-08-21T12:49:09.668Z,25.87
2022-08-21T12:50:19.789Z,25.98
2022-08-21T12:51:27.302Z,26.11
2022-08-21T12:52:39.000Z,26.22
2022-08-21T12:53:46.529Z,26.29
2022-08-21T12:54:49.789Z,26.30
2022-08-21T12:55:51.970Z,26.29
2022-08-21T12:57:00.610Z,26.24
2022-08-21T12:58:03.734Z,26.21
2022-08-21T12:59:08.745Z,26.20
2022-08-21T13:00:15.326Z,26.21
2022-08-21T13:01:22.339Z,26.26
2022-08-21T13:02:30.343Z,26.34
2022-08-21T13:03:36.032Z,26.36
2022-08-21T13:04:41.782Z,26.39
2022-08-21T13:05:45.483Z,26.35
2022-08-21T13:06:52.291Z,26.28
2022-08-21T13:07:56.844Z,26.18
2022-08-21T13:09:07.202Z,26.03
2022-08-21T13:10:20.565Z,25.91
2022-08-21T13:11:33.750Z,25.76
2022-08-21T13:12:38.172Z,25.83
2022-08-21T13:13:46.960Z,25.92
2022-08-21T13:14:57.372Z,26.04
2022-08-21T13:16:01.591Z,26.20
2022-08-21T13:17:07.917Z,26.38
2022-08-21T13:18:21.706Z,26.53
2022-08-21T13:19:27.472Z,26.70
2022-08-21T13:20:31.513Z,26.87
2022-08-21T13:21:40.551Z,26.93
2022-08-21T13:22:44.689Z,26.92
2022-08-21T13:23:49.101Z,26.85
2022-08-21T13:24:51.705Z,26.71
2022-08-21T13:25:55.786Z,26.64
2022-08-21T13:26:58.669Z,26.60
2022-08-21T13:28:06.840Z,26.59
2022-08-21T13:29:12.268Z,26.64
2022-08-21T13:30:24.473Z,26.73
2022-08-21T13:31:31.851Z,26.79
2022-08-21T13:32:38.783Z,26.83
2022-08-21T13:33:43.437Z,26.84
2022-08-21T13:34:45.591Z,26.90
2022-08-21T13:35:51.749Z,27.00
2022-08-21T13:36:59.555Z,27.09
2022-08-21T13:38:03.225Z,27.21
2022-08-21T13:39:06.260Z,27.21
2022-08-21T13:40:13.267Z,27.12
2022-08-21T13:41:23.689Z,27.10
2022-08-21T13:42:25.895Z,26.99
2022-08-21T13:43:33.208Z,26.88
2022-08-21T13:44:37.811Z,26.73
2022-08-21T13:45:40.962Z,26.59
2022-08-21T13:46:43.969Z,26.42
2022-08-21T13:47:49.371Z,26.24
2022-08-21T13:48:51.899Z,26.12
2022-08-21T13:49:59.064Z,26.09
2022-08-21T13:51:03.099Z,26.11
2022-08-21T13:52:15.790Z,26.23
2022-08-21T13:53:30.062Z,26.40
2022-08-21T13:54:37.066Z,26.58
2022-08-21T13:55:44.491Z,26.69
2022-08-21T13:56:47.777Z,26.78
2022-08-21T13:58:01.418Z,26.87
2022-08-21T13:59:05.041Z,26.91
2022-08-21T14:00:17.921Z,26.93
2022-08-21T14:01:25.293Z,26.94
2022-08-21T14:02:27.637Z,26.94
2022-08-21T14:03:36.382Z,26.93
2022-08-21T14:04:44.733Z,26.86
2022-08-21T14:05:56.589Z,26.76
2022-08-21T14:07:03.859Z,26.64
2022-08-21T14:08:13.269Z,26.48
2022-08-21T14:09:27.793Z,26.33
2022-08-21T14:10:30.585Z,26.22
2022-08-21T14:11:36.637Z,26.14
2022-08-21T14:12:44.528Z,26.09
2022-08-21T14:13:51.893Z,26.07
2022-08-21T14:14:57.060Z,26.03
2022-08-21T14:16:00.650Z,26.04